Los Angeles International Airport
KLAX : now visible

Airfield :











YOU CAN JOIN US ON...

 
LOGIN :

Register | Disclaimer

   EN    FR    IT 

 









Legend :    VFR   Marginal VFR   IFR   Intensive IFR   Very Intensive IFR
Visi :
Ceiling :
>= 8 km
>= 3000ft
5 to 8 km
1000 to 3000 ft
1500m to 5 km
500 to 1000 ft
800 to 1500m
200 to 500 ft
< 800m
< 200 ft
Symbols :   Thunderstorms  Fog  Heavy snow  Heavy precipitations  Wind > 20 kt






- Airport Elevation : 125 ft
- IATA code : LAX


KLAX - Los Angeles International

CURRENT METAR :
  • 092253Z 11008KT 7SM -RA FEW012 SCT025 OVC060 13/10 A3007 RMK AO2 CIG 019 RWY24 SLP184 P0016 T01280100 $

EXPIRED METARs :
  • 092238Z 11008KT 7SM -RA SCT009 BKN029 OVC060 13/10 A3007 RMK AO2 CIG 019 RWY24 P0015 T01330100 $
  • 092230Z 15006KT 7SM -RA BKN008 BKN019 OVC055 13/10 A3007 RMK AO2 P0015 T01280100 $
  • 092213Z 13005KT 2SM R25L/5000VP6000FT RA BKN008 OVC015 13/10 A3008 RMK AO2 VIS 1 1/4V3 P0009 T01280100 $
  • 092153Z 04005KT 2 1/2SM +RA FEW010 BKN015 OVC021 13/11 A3008 RMK AO2 SLP185 P0010 T01330106 $
  • 092127Z 06009KT 6SM RA FEW009 BKN022 OVC049 13/11 A3009 RMK AO2 P0002 T01330106 $
  • 092053Z 06007KT 9SM -RA BR FEW009 SCT043 OVC060 13/11 A3009 RMK AO2 SLP189 P0006 60010 T01330106 58012 $

TAF KLAX
Valid from the 09 at 22:00 until the 11 at 00:00 UTC


092201Z 0922/1024 04006KT 3SM RA BKN015 OVC020
FM092300 12008KT 4SM -SHRA BR BKN020 OVC030
FM100200 16005KT 6SM -SHRA BR BKN025 OVC050
FM100600 09010KT P6SM -RA BKN025 OVC050
FM102100 27010KT P6SM VCSH SCT030 BKN060



MET'MAP, your aeronautical weather chart ! - Copyright ORBIFLY December 2007 - Disclaimer

ORBIFLY MET'MAP TEAM :

Programming & Development : Alexandra Zaïnal
Concept & original design : Baudouin d'Aumeries
Assistance for programming : Marc-Olivier Méhu
Technical & hardware support : Manuel Goepfert

Contact : metmap@orbifly.com




SOURCES & CREDITS :

   NOAA       Earth
Advisory